Time;durP1;ratioP1;P1;durP2;ratioP2;P2;SDS_P1;SDS_P2;PMS_P1;PMS_P2;Temp;Humidity;BMP_temperature;BMP_pressure;BME280_temperature;BME280_humidity;BME280_pressure;Samples;Min_cycle;Max_cycle;Signal;HPM_P1;HPM_P2
2023/10/14 00:02:21;;;;;;;24.52;14.32;;;;;;;17.10;67.96;99859.19;4442910;32;32998;-72
2023/10/14 00:04:52;;;;;;;23.73;13.80;;;;;;;17.20;67.66;99851.50;4456828;32;32902;-72
2023/10/14 00:07:24;;;;;;;21.43;13.30;;;;;;;17.12;68.01;99847.87;4435232;32;33335;-72
2023/10/14 00:09:56;;;;;;;20.10;12.00;;;;;;;17.00;68.58;99846.78;4455076;32;33505;-72
2023/10/14 00:12:28;;;;;;;18.27;11.75;;;;;;;17.09;68.35;99844.34;4468083;32;32959;-72
2023/10/14 00:15:03;;;;;;;18.80;11.80;;;;;;;17.17;67.85;99838.34;4457615;32;33410;-72
2023/10/14 00:17:35;;;;;;;19.55;12.18;;;;;;;17.32;67.23;99830.78;4468558;32;33105;-72
2023/10/14 00:20:04;;;;;;;21.42;12.80;;;;;;;17.12;67.70;99829.56;4449935;32;33167;-72
2023/10/14 00:22:32;;;;;;;21.12;13.07;;;;;;;17.41;66.02;99823.09;4465084;32;34342;-72
2023/10/14 00:25:00;;;;;;;19.08;12.73;;;;;;;17.45;66.35;99830.16;4468459;32;33434;-72
2023/10/14 00:27:28;;;;;;;20.50;13.27;;;;;;;17.63;65.04;99833.94;4468816;32;33650;-72
2023/10/14 00:30:09;;;;;;;18.80;12.82;;;;;;;17.40;65.61;99836.16;4454501;32;31318;-72
2023/10/14 00:32:38;;;;;;;21.77;12.77;;;;;;;17.71;64.52;99826.22;4461232;32;33046;-72
2023/10/14 00:35:09;;;;;;;22.33;13.80;;;;;;;17.25;66.07;99834.16;4466013;32;34543;-72
2023/10/14 00:37:37;;;;;;;20.02;12.73;;;;;;;17.31;66.57;99834.28;4467489;32;34013;-72
2023/10/14 00:40:11;;;;;;;21.45;13.23;;;;;;;17.17;66.71;99834.03;4451069;32;33171;-72
2023/10/14 00:42:41;;;;;;;26.58;14.05;;;;;;;16.87;67.68;99829.09;4468654;32;33609;-72
2023/10/14 00:45:11;;;;;;;24.08;13.93;;;;;;;16.71;68.66;99826.13;4468796;32;33543;-72
2023/10/14 00:47:40;;;;;;;22.85;13.65;;;;;;;16.87;68.39;99814.25;4455570;32;34321;-72
2023/10/14 00:50:21;;;;;;;21.85;12.95;;;;;;;16.66;68.98;99819.03;4467993;32;33015;-72
2023/10/14 00:52:57;;;;;;;23.25;12.68;;;;;;;16.65;69.12;99812.94;4455099;32;33743;-72
2023/10/14 00:55:36;;;;;;;20.45;12.82;;;;;;;16.70;69.29;99811.25;4455456;32;33795;-73
2023/10/14 00:58:06;;;;;;;20.30;12.02;;;;;;;16.86;68.61;99804.66;4468505;32;33020;-72
2023/10/14 01:00:37;;;;;;;23.00;13.30;;;;;;;16.76;68.90;99794.81;4460256;32;33295;-72
2023/10/14 01:03:10;;;;;;;20.62;13.55;;;;;;;16.93;68.41;99796.91;4468524;32;33355;-72
2023/10/14 01:05:38;;;;;;;20.10;12.23;;;;;;;17.22;66.45;99789.59;4455417;32;34003;-72
2023/10/14 01:08:11;;;;;;;19.77;12.80;;;;;;;17.20;65.46;99780.84;4463545;32;33381;-72
2023/10/14 01:10:39;;;;;;;24.07;14.37;;;;;;;17.12;65.17;99777.22;4457394;32;33106;-72
2023/10/14 01:13:13;;;;;;;21.40;14.10;;;;;;;16.99;65.62;99771.75;4450512;32;33458;-72
2023/10/14 01:15:49;;;;;;;20.75;13.55;;;;;;;17.16;65.27;99763.31;4466485;32;34027;-72
2023/10/14 01:18:17;;;;;;;24.90;14.80;;;;;;;16.82;66.54;99768.81;4458641;32;33806;-72
2023/10/14 01:20:46;;;;;;;21.65;12.93;;;;;;;16.58;68.09;99763.97;4461729;32;33146;-72
2023/10/14 01:23:17;;;;;;;19.83;12.50;;;;;;;16.80;66.98;99759.13;4468011;32;34150;-72
2023/10/14 01:25:47;;;;;;;21.80;13.15;;;;;;;17.00;65.00;99756.94;4454168;32;34061;-71
2023/10/14 01:28:30;;;;;;;21.63;13.60;;;;;;;16.80;64.87;99753.91;4458790;32;33409;-70
2023/10/14 01:31:06;;;;;;;22.67;13.57;;;;;;;16.54;66.25;99735.13;4463500;32;32398;-71
2023/10/14 01:33:36;;;;;;;22.48;13.70;;;;;;;16.73;66.36;99744.16;4456844;32;33867;-71
2023/10/14 01:36:04;;;;;;;23.35;13.98;;;;;;;16.15;68.49;99731.72;4464005;32;33369;-71
2023/10/14 01:38:32;;;;;;;21.30;13.20;;;;;;;16.29;68.16;99738.09;4441960;32;33323;-71
2023/10/14 01:41:04;;;;;;;20.48;13.23;;;;;;;16.31;67.53;99739.00;4462230;32;34084;-72
2023/10/14 01:43:32;;;;;;;21.27;13.75;;;;;;;16.51;66.70;99742.06;4440527;32;31049;-71
2023/10/14 01:46:00;;;;;;;20.62;13.38;;;;;;;16.28;67.67;99744.19;4463755;32;34420;-71
2023/10/14 01:48:31;;;;;;;21.60;14.02;;;;;;;15.97;69.00;99726.97;4453883;32;33366;-71
2023/10/14 01:50:59;;;;;;;21.27;14.48;;;;;;;16.00;69.88;99720.94;4466026;32;32356;-71
2023/10/14 01:53:31;;;;;;;25.03;15.20;;;;;;;16.27;69.01;99708.44;4467577;32;34346;-71
2023/10/14 01:56:01;;;;;;;22.02;13.77;;;;;;;16.27;69.17;99716.28;4462773;32;34006;-71
2023/10/14 01:58:32;;;;;;;24.00;14.48;;;;;;;16.34;68.99;99717.31;4467306;32;32126;-71
2023/10/14 02:03:51;;;;;;;23.73;13.50;;;;;;;16.38;68.32;99702.53;4463609;32;32792;-71
2023/10/14 02:06:25;;;;;;;20.73;12.52;;;;;;;16.45;68.08;99704.44;4465345;32;33230;-72
2023/10/14 02:08:58;;;;;;;20.33;13.52;;;;;;;16.41;67.75;99705.22;4463609;32;32953;-71
2023/10/14 02:11:33;;;;;;;25.67;14.68;;;;;;;16.22;67.83;99707.44;4465227;32;33603;-71
2023/10/14 02:14:06;;;;;;;27.47;15.60;;;;;;;16.36;67.66;99710.38;4464706;32;33527;-71
2023/10/14 02:16:42;;;;;;;26.10;15.67;;;;;;;16.28;68.92;99702.38;4466737;32;33212;-71
2023/10/14 02:22:00;;;;;;;24.92;15.52;;;;;;;16.42;70.27;99691.31;4465209;32;33829;-71
2023/10/14 02:24:28;;;;;;;25.85;15.82;;;;;;;16.43;71.13;99688.69;4464289;32;33320;-71
2023/10/14 02:27:06;;;;;;;23.30;14.65;;;;;;;16.63;70.98;99686.47;4450190;32;34278;-71
2023/10/14 02:29:34;;;;;;;26.73;15.68;;;;;;;16.69;71.05;99675.25;4467100;32;32768;-71
2023/10/14 02:32:01;;;;;;;24.95;14.82;;;;;;;16.93;70.37;99680.06;4451506;32;32907;-71
2023/10/14 02:34:30;;;;;;;24.12;15.05;;;;;;;17.00;70.21;99684.56;4465855;32;34528;-71
2023/10/14 02:37:01;;;;;;;23.35;14.57;;;;;;;16.85;70.31;99685.16;4465292;32;33979;-71
2023/10/14 02:39:29;;;;;;;21.67;13.75;;;;;;;16.94;69.55;99680.94;4453547;32;33407;-71
2023/10/14 02:42:00;;;;;;;23.55;14.52;;;;;;;16.76;69.78;99692.81;4449966;32;32246;-71
2023/10/14 02:44:33;;;;;;;26.20;15.40;;;;;;;16.80;69.26;99693.75;4466201;32;33264;-71
2023/10/14 02:47:04;;;;;;;26.50;15.35;;;;;;;16.86;69.62;99692.16;4464647;32;33254;-71
2023/10/14 02:52:29;;;;;;;23.73;15.13;;;;;;;16.82;70.17;99678.97;4449632;32;33401;-71
2023/10/14 02:58:06;;;;;;;24.55;15.02;;;;;;;16.85;70.41;99679.06;4414892;32;32539;-71
2023/10/14 03:00:33;;;;;;;24.80;15.05;;;;;;;17.00;69.75;99674.09;4415813;32;34223;-71
2023/10/14 03:03:10;;;;;;;22.65;14.07;;;;;;;16.71;69.91;99671.81;4442474;32;33504;-71
2023/10/14 03:05:51;;;;;;;21.23;13.90;;;;;;;16.75;69.22;99672.75;4454630;32;33941;-71
2023/10/14 03:08:22;;;;;;;21.92;12.93;;;;;;;16.80;68.21;99680.66;4466743;32;33918;-71
2023/10/14 03:10:55;;;;;;;22.30;13.90;;;;;;;16.81;67.26;99682.44;4466175;32;34095;-71
2023/10/14 03:13:24;;;;;;;22.48;14.20;;;;;;;16.73;66.67;99678.78;4467236;32;33997;-71
2023/10/14 03:15:54;;;;;;;23.00;13.68;;;;;;;16.56;66.82;99676.75;4461869;32;34297;-71
2023/10/14 03:18:30;;;;;;;23.05;14.48;;;;;;;16.51;66.63;99674.06;4466968;32;33791;-71
2023/10/14 03:20:59;;;;;;;22.25;13.43;;;;;;;16.60;66.70;99673.34;4467126;32;32790;-71
2023/10/14 03:23:28;;;;;;;24.87;14.32;;;;;;;16.52;66.84;99675.81;4454274;32;33067;-71
2023/10/14 03:26:15;;;;;;;22.77;14.45;;;;;;;16.36;67.08;99668.56;4453072;32;34020;-71
2023/10/14 03:28:50;;;;;;;26.30;15.70;;;;;;;16.46;66.85;99667.00;4466593;32;32970;-71
2023/10/14 03:31:19;;;;;;;25.12;14.93;;;;;;;16.18;68.98;99666.44;4456110;32;33925;-71
2023/10/14 03:33:47;;;;;;;23.25;14.55;;;;;;;16.36;68.73;99659.81;4467035;32;33947;-71
2023/10/14 03:36:20;;;;;;;25.40;14.65;;;;;;;16.29;68.50;99661.44;4462474;32;33430;-71
2023/10/14 03:38:55;;;;;;;24.10;14.70;;;;;;;16.52;68.09;99654.91;4466594;32;33351;-71
2023/10/14 03:41:28;;;;;;;24.87;15.60;;;;;;;16.49;67.87;99660.06;4466988;32;33120;-71
2023/10/14 03:46:35;;;;;;;29.17;16.90;;;;;;;16.40;69.15;99659.00;4468785;32;33695;-71
2023/10/14 03:49:11;;;;;;;24.80;15.70;;;;;;;16.18;70.84;99652.50;4468658;32;33156;-71
2023/10/14 03:51:54;;;;;;;26.00;15.05;;;;;;;16.27;70.74;99643.09;4456198;32;33876;-71
2023/10/14 03:54:24;;;;;;;23.08;14.05;;;;;;;16.22;69.57;99639.50;4468013;32;33595;-71
2023/10/14 03:56:52;;;;;;;23.85;14.15;;;;;;;16.42;67.69;99644.25;4454433;32;31933;-71
2023/10/14 03:59:22;;;;;;;23.50;14.68;;;;;;;16.23;67.55;99641.28;4467566;32;33858;-71
2023/10/14 04:01:58;;;;;;;25.12;15.15;;;;;;;16.23;67.23;99641.28;4456373;32;34264;-71
2023/10/14 04:04:28;;;;;;;23.07;15.27;;;;;;;16.36;67.11;99641.50;4462751;32;33442;-71
2023/10/14 04:09:51;;;;;;;25.45;15.65;;;;;;;16.06;69.39;99632.22;4455682;32;34245;-71
2023/10/14 04:12:38;;;;;;;26.02;16.73;;;;;;;16.03;69.92;99624.31;4461905;32;32961;-71
2023/10/14 04:17:46;;;;;;;23.73;15.95;;;;;;;16.07;70.02;99633.97;4455726;32;33437;-71
2023/10/14 04:20:21;;;;;;;23.52;15.50;;;;;;;16.05;69.20;99638.28;4463136;32;33497;-71
2023/10/14 04:22:53;;;;;;;24.08;15.88;;;;;;;16.38;67.94;99631.94;4456066;32;33650;-71
2023/10/14 04:25:24;;;;;;;26.55;16.08;;;;;;;16.09;68.10;99632.31;4465860;32;33170;-71
2023/10/14 04:30:31;;;;;;;24.10;15.10;;;;;;;16.02;67.41;99640.88;4437891;32;33591;-71
2023/10/14 04:35:33;;;;;;;26.17;15.77;;;;;;;15.87;67.55;99641.41;4455560;32;32965;-71
2023/10/14 04:38:03;;;;;;;24.60;15.68;;;;;;;16.10;66.91;99637.53;4447224;32;31870;-71
2023/10/14 04:45:51;;;;;;;27.98;15.55;;;;;;;15.84;68.31;99647.47;4466416;32;32177;-71
2023/10/14 04:48:27;;;;;;;27.93;16.03;;;;;;;15.99;67.79;99635.56;4453532;32;33934;-71
2023/10/14 04:51:00;;;;;;;23.62;14.82;;;;;;;15.66;69.06;99631.38;4457259;32;33596;-71
2023/10/14 04:53:27;;;;;;;24.30;15.48;;;;;;;15.69;69.25;99634.06;4454801;32;34284;-71
2023/10/14 04:55:55;;;;;;;24.83;15.70;;;;;;;15.62;69.24;99637.38;4466950;32;33125;-71
2023/10/14 04:58:32;;;;;;;26.93;16.03;;;;;;;15.44;70.27;99625.69;4461168;32;33633;-71
2023/10/14 05:01:00;;;;;;;25.20;15.30;;;;;;;15.80;69.03;99614.31;4458410;32;33157;-71
2023/10/14 05:03:29;;;;;;;25.20;15.63;;;;;;;15.62;69.67;99608.66;4455501;32;34048;-71
2023/10/14 05:05:57;;;;;;;23.58;15.20;;;;;;;15.69;69.40;99616.66;4466959;32;33714;-71
2023/10/14 05:08:43;;;;;;;24.87;14.43;;;;;;;15.74;68.64;99608.94;4466828;32;33358;-71
2023/10/14 05:11:18;;;;;;;22.40;15.13;;;;;;;15.69;68.42;99607.94;4444856;32;33775;-71
2023/10/14 05:13:53;;;;;;;23.10;15.07;;;;;;;15.58;68.47;99615.53;4465637;32;34024;-71
2023/10/14 05:16:21;;;;;;;24.35;14.90;;;;;;;15.39;68.78;99611.63;4458542;32;33483;-71
2023/10/14 05:19:07;;;;;;;23.60;15.63;;;;;;;15.47;68.51;99615.31;4457830;32;34548;-71
2023/10/14 05:21:35;;;;;;;23.92;15.00;;;;;;;15.44;68.46;99620.47;4461003;32;34626;-71
2023/10/14 05:24:09;;;;;;;26.08;16.08;;;;;;;15.58;68.01;99612.91;4447831;32;33439;-71
2023/10/14 05:26:44;;;;;;;27.27;15.88;;;;;;;15.89;66.96;99618.81;4436299;32;33016;-71
2023/10/14 05:29:19;;;;;;;25.70;16.58;;;;;;;15.66;67.62;99620.91;4441540;32;33008;-71
2023/10/14 05:31:47;;;;;;;25.42;16.65;;;;;;;15.71;67.56;99614.94;4429694;32;31200;-71
2023/10/14 05:34:21;;;;;;;27.40;15.83;;;;;;;15.73;67.58;99615.03;4452358;32;33632;-71
2023/10/14 05:36:52;;;;;;;24.25;15.80;;;;;;;15.89;66.46;99614.47;4455230;32;32687;-71
2023/10/14 05:39:21;;;;;;;26.95;16.27;;;;;;;15.62;67.27;99609.53;4438964;32;33218;-72
2023/10/14 05:41:55;;;;;;;27.97;16.40;;;;;;;15.34;68.87;99613.28;4445618;32;33847;-71
2023/10/14 05:44:27;;;;;;;27.85;16.30;;;;;;;15.51;68.64;99617.16;4461447;32;33346;-72
2023/10/14 05:46:55;;;;;;;24.08;15.48;;;;;;;15.62;68.72;99616.47;4462312;32;33533;-72
2023/10/14 05:49:24;;;;;;;25.08;15.60;;;;;;;15.91;67.74;99618.00;4447096;32;32525;-72
2023/10/14 05:51:53;;;;;;;26.35;16.37;;;;;;;15.94;67.41;99617.19;4426152;32;32564;-71
2023/10/14 05:54:22;;;;;;;26.33;16.20;;;;;;;15.63;68.27;99619.13;4440835;32;33534;-72
2023/10/14 05:56:53;;;;;;;26.83;17.02;;;;;;;15.51;69.29;99627.59;4439026;32;33190;-71
2023/10/14 05:59:20;;;;;;;28.50;16.75;;;;;;;15.47;70.20;99630.97;4439914;32;32594;-72
2023/10/14 06:01:48;;;;;;;27.37;17.17;;;;;;;15.73;69.54;99618.50;4445562;32;33667;-70
2023/10/14 06:04:17;;;;;;;28.60;16.70;;;;;;;15.91;69.49;99618.00;4442032;32;33742;-70
2023/10/14 06:06:44;;;;;;;25.37;18.10;;;;;;;15.85;70.30;99628.31;4443222;32;33208;-70
2023/10/14 06:09:16;;;;;;;26.83;19.33;;;;;;;15.71;70.91;99614.06;4446647;32;33907;-71
2023/10/14 06:11:47;;;;;;;31.35;20.37;;;;;;;15.87;71.15;99616.16;4453234;32;33350;-72
2023/10/14 06:14:14;;;;;;;35.03;24.20;;;;;;;16.10;70.21;99619.25;4459065;32;32875;-70
2023/10/14 06:16:42;;;;;;;36.20;24.37;;;;;;;15.92;71.45;99611.94;4465711;32;34218;-72
2023/10/14 06:19:12;;;;;;;28.95;19.15;;;;;;;15.94;72.20;99613.72;4455158;32;34361;-72
2023/10/14 06:21:40;;;;;;;28.60;18.02;;;;;;;16.22;71.04;99613.37;4460625;32;33590;-72
2023/10/14 06:24:10;;;;;;;26.10;17.60;;;;;;;16.08;71.67;99620.06;4452564;32;33891;-72
2023/10/14 06:26:38;;;;;;;25.58;16.23;;;;;;;16.06;71.74;99613.94;4467417;32;33237;-72
2023/10/14 06:29:09;;;;;;;34.40;22.73;;;;;;;16.07;71.86;99613.06;4467354;32;33950;-72
2023/10/14 06:31:40;;;;;;;33.35;21.15;;;;;;;16.06;72.02;99608.72;4466503;32;33376;-70
2023/10/14 06:34:11;;;;;;;32.78;21.48;;;;;;;16.09;72.04;99611.41;4465838;32;34409;-71
2023/10/14 06:36:38;;;;;;;33.03;20.85;;;;;;;16.24;71.99;99611.66;4455323;32;33887;-73
2023/10/14 06:39:15;;;;;;;31.05;20.50;;;;;;;16.23;73.09;99624.72;4459582;32;34430;-71
2023/10/14 06:41:43;;;;;;;31.52;20.37;;;;;;;16.35;73.47;99622.34;4450408;32;31717;-70
2023/10/14 06:44:15;;;;;;;31.73;20.92;;;;;;;16.60;73.12;99615.81;4462567;32;33669;-69
2023/10/14 06:46:45;;;;;;;40.65;25.08;;;;;;;16.69;73.75;99620.34;4448725;32;32913;-69
2023/10/14 06:49:14;;;;;;;37.65;25.45;;;;;;;16.78;73.84;99619.59;4461444;32;33653;-72
2023/10/14 06:51:42;;;;;;;29.50;20.50;;;;;;;17.00;72.86;99620.87;4465437;32;34627;-71
2023/10/14 06:54:09;;;;;;;33.05;21.40;;;;;;;16.76;76.37;99618.69;4461119;32;33487;-71
2023/10/14 06:56:37;;;;;;;31.12;20.10;;;;;;;16.95;76.27;99626.00;4465460;32;33301;-72
2023/10/14 06:59:05;;;;;;;31.30;20.45;;;;;;;17.23;74.57;99624.72;4459573;32;33452;-73
2023/10/14 07:01:34;;;;;;;30.88;19.85;;;;;;;17.09;74.50;99621.91;4458968;32;33938;-72
2023/10/14 07:04:02;;;;;;;32.60;20.85;;;;;;;17.45;73.20;99625.91;4464694;32;33702;-71
2023/10/14 07:06:31;;;;;;;31.55;19.85;;;;;;;17.40;73.36;99611.87;4464745;32;33373;-71
2023/10/14 07:09:05;;;;;;;32.95;20.90;;;;;;;17.33;73.82;99611.78;4461848;32;33794;-70
2023/10/14 07:11:32;;;;;;;32.47;21.75;;;;;;;17.45;74.07;99604.94;4460409;32;33391;-71
2023/10/14 07:14:00;;;;;;;34.17;23.05;;;;;;;17.65;73.92;99601.72;4465274;32;34320;-73
2023/10/14 07:16:28;;;;;;;37.60;26.05;;;;;;;17.96;73.36;99597.75;4465895;32;33477;-69
2023/10/14 07:18:55;;;;;;;36.10;24.05;;;;;;;18.09;73.00;99604.03;4463753;32;33554;-69
2023/10/14 07:21:23;;;;;;;33.88;22.13;;;;;;;18.21;72.83;99598.91;4466992;32;34609;-71
2023/10/14 07:23:51;;;;;;;36.53;22.33;;;;;;;18.13;73.54;99595.34;4464165;32;33931;-71
2023/10/14 07:26:18;;;;;;;35.33;21.70;;;;;;;18.28;73.05;99589.37;4463574;32;33541;-70
2023/10/14 07:28:51;;;;;;;35.38;22.80;;;;;;;18.34;73.20;99578.09;4437204;32;32409;-71
2023/10/14 07:31:23;;;;;;;33.07;22.17;;;;;;;18.43;73.08;99589.53;4457241;32;34160;-71
2023/10/14 07:33:52;;;;;;;33.83;22.58;;;;;;;18.51;72.97;99578.25;4454516;32;33361;-72
2023/10/14 07:36:20;;;;;;;32.90;21.52;;;;;;;18.73;72.44;99584.53;4466649;32;33383;-72
2023/10/14 07:38:48;;;;;;;33.42;22.58;;;;;;;18.92;71.54;99578.59;4463057;32;34442;-71
2023/10/14 07:41:16;;;;;;;35.80;23.17;;;;;;;18.98;71.52;99583.03;4461522;32;34628;-72
2023/10/14 07:43:43;;;;;;;34.03;21.75;;;;;;;18.79;72.20;99576.72;4466036;32;33712;-71
2023/10/14 07:46:11;;;;;;;33.15;22.58;;;;;;;19.39;70.29;99579.78;4465848;32;33424;-71
2023/10/14 07:48:40;;;;;;;35.10;23.00;;;;;;;19.33;70.52;99574.50;4465861;32;33736;-72
2023/10/14 07:51:08;;;;;;;32.87;22.10;;;;;;;19.26;70.69;99573.59;4451998;32;32072;-72
2023/10/14 07:53:56;;;;;;;33.80;21.33;;;;;;;19.26;70.95;99573.59;4463215;32;33905;-71
2023/10/14 07:56:23;;;;;;;33.45;22.05;;;;;;;19.58;69.36;99578.12;4465253;32;33163;-71
2023/10/14 07:58:53;;;;;;;32.50;20.73;;;;;;;19.96;67.96;99582.69;4465982;32;33682;-71
2023/10/14 08:01:23;;;;;;;31.95;20.62;;;;;;;20.16;66.49;99583.59;4465938;32;33672;-72
2023/10/14 08:03:56;;;;;;;29.55;19.90;;;;;;;20.17;65.38;99577.50;4449739;32;36000;-71
2023/10/14 08:06:26;;;;;;;30.80;19.75;;;;;;;20.18;65.24;99578.34;4465798;32;32510;-71
2023/10/14 08:08:53;;;;;;;28.52;19.77;;;;;;;20.97;62.43;99574.06;4463331;32;33718;-71
2023/10/14 08:11:22;;;;;;;32.60;19.37;;;;;;;21.05;62.26;99568.78;4452094;32;31805;-71
2023/10/14 08:13:49;;;;;;;27.70;18.80;;;;;;;21.07;61.37;99567.00;4457224;32;33918;-72
2023/10/14 08:16:18;;;;;;;28.92;19.70;;;;;;;21.41;60.43;99563.41;4461626;32;34419;-71
2023/10/14 08:18:46;;;;;;;27.85;18.60;;;;;;;21.63;59.89;99563.38;4462922;32;34510;-71
2023/10/14 08:21:14;;;;;;;28.90;18.65;;;;;;;21.75;59.94;99563.34;4462739;32;33757;-71
2023/10/14 08:23:42;;;;;;;30.00;18.85;;;;;;;21.89;58.99;99560.63;4463912;32;33815;-72
2023/10/14 08:26:13;;;;;;;29.87;17.92;;;;;;;22.23;58.01;99562.19;4461349;32;33580;-72
2023/10/14 08:28:42;;;;;;;25.83;17.60;;;;;;;22.13;58.90;99571.91;4462995;32;33956;-72
2023/10/14 08:31:11;;;;;;;25.88;17.65;;;;;;;22.62;57.82;99568.09;4459433;32;33194;-72
2023/10/14 08:33:39;;;;;;;27.80;17.52;;;;;;;22.95;55.48;99561.66;4456775;32;33988;-71
2023/10/14 08:36:13;;;;;;;25.75;17.55;;;;;;;22.94;55.55;99554.62;4460597;32;33726;-71
2023/10/14 08:38:43;;;;;;;25.98;17.65;;;;;;;22.69;55.67;99552.19;4467307;32;33695;-72
2023/10/14 08:41:15;;;;;;;26.37;16.33;;;;;;;22.86;55.80;99541.47;4465189;32;33608;-72
2023/10/14 08:43:49;;;;;;;24.60;16.75;;;;;;;23.16;56.35;99532.41;4466856;32;33492;-73
2023/10/14 08:46:18;;;;;;;25.90;16.15;;;;;;;23.35;55.49;99551.59;4467242;32;33796;-71
2023/10/14 08:48:50;;;;;;;21.67;14.63;;;;;;;23.47;55.20;99542.63;4448797;32;33621;-72
2023/10/14 08:51:18;;;;;;;25.20;16.37;;;;;;;23.75;55.06;99540.50;4453735;32;33452;-71
2023/10/14 08:53:51;;;;;;;24.45;15.57;;;;;;;24.08;52.16;99532.16;4453151;32;33142;-72
2023/10/14 08:56:22;;;;;;;25.63;14.20;;;;;;;24.24;51.28;99532.78;4455004;32;32724;-71
2023/10/14 08:58:50;;;;;;;22.33;13.85;;;;;;;24.47;51.56;99533.34;4466775;32;32775;-72
2023/10/14 09:01:18;;;;;;;20.42;13.35;;;;;;;24.71;51.31;99539.16;4468252;32;33716;-73
2023/10/14 09:03:49;;;;;;;21.45;13.85;;;;;;;24.96;50.25;99544.88;4460999;32;33923;-72
2023/10/14 09:06:18;;;;;;;21.92;13.98;;;;;;;25.04;48.64;99542.09;4468549;32;33870;-71
2023/10/14 09:08:47;;;;;;;25.90;14.13;;;;;;;24.92;48.63;99538.75;4459044;32;34528;-72
2023/10/14 09:11:28;;;;;;;24.58;14.50;;;;;;;25.09;48.51;99541.09;4464888;32;33389;-72
2023/10/14 09:14:03;;;;;;;21.70;13.27;;;;;;;25.37;48.13;99537.09;4442282;32;32834;-72
2023/10/14 09:16:36;;;;;;;25.73;14.00;;;;;;;25.37;48.19;99539.75;4453065;32;32800;-72
2023/10/14 09:19:05;;;;;;;21.67;14.25;;;;;;;25.82;46.93;99531.72;4468155;32;33523;-73
2023/10/14 09:21:43;;;;;;;19.20;12.68;;;;;;;26.08;45.95;99529.37;4455727;32;33654;-73
2023/10/14 09:24:11;;;;;;;21.23;13.30;;;;;;;26.42;45.39;99523.25;4454271;32;33675;-73
2023/10/14 09:26:43;;;;;;;20.48;13.65;;;;;;;26.48;44.25;99520.47;4453756;32;31331;-72
2023/10/14 09:29:11;;;;;;;24.55;15.48;;;;;;;26.76;44.00;99517.12;4454327;32;33248;-72
2023/10/14 09:31:40;;;;;;;21.83;13.50;;;;;;;26.46;43.33;99514.31;4467863;32;33747;-71
2023/10/14 09:34:21;;;;;;;20.95;14.25;;;;;;;26.65;44.19;99508.56;4468365;32;33712;-71
2023/10/14 09:36:52;;;;;;;19.70;13.85;;;;;;;26.80;44.19;99508.16;4438667;32;30877;-72
2023/10/14 09:39:24;;;;;;;23.75;14.68;;;;;;;27.12;43.20;99514.41;4465147;32;34191;-72
2023/10/14 09:41:53;;;;;;;21.40;13.50;;;;;;;26.95;44.12;99522.84;4442286;32;33109;-72
2023/10/14 09:44:21;;;;;;;20.58;13.62;;;;;;;27.22;42.86;99518.56;4466999;32;33587;-73
2023/10/14 09:46:52;;;;;;;20.57;14.40;;;;;;;27.65;41.97;99509.34;4462014;32;33264;-72
2023/10/14 09:49:22;;;;;;;21.83;13.20;;;;;;;27.68;41.87;99507.50;4454724;32;33518;-72
2023/10/14 09:51:53;;;;;;;19.42;13.95;;;;;;;28.02;41.17;99502.06;4455524;32;34424;-73
2023/10/14 09:54:22;;;;;;;20.98;12.65;;;;;;;27.29;41.99;99494.47;4447443;32;34041;-73
2023/10/14 09:56:50;;;;;;;20.77;13.57;;;;;;;27.64;42.16;99486.34;4453948;32;33537;-72
2023/10/14 09:59:21;;;;;;;23.35;13.65;;;;;;;27.91;41.39;99483.78;4452813;32;34253;-73
2023/10/14 10:01:50;;;;;;;23.67;13.73;;;;;;;28.22;40.49;99488.09;4455610;32;34256;-71
2023/10/14 10:04:22;;;;;;;19.98;12.75;;;;;;;27.99;40.69;99481.75;4468055;32;34323;-72
2023/10/14 10:07:04;;;;;;;20.48;13.43;;;;;;;28.54;40.43;99488.88;4453769;32;33997;-72
2023/10/14 10:09:47;;;;;;;24.25;15.07;;;;;;;28.59;39.65;99481.59;4467864;32;33773;-72
2023/10/14 10:12:16;;;;;;;19.65;14.00;;;;;;;28.67;39.27;99484.88;4462224;32;33516;-72
2023/10/14 10:14:44;;;;;;;23.67;15.63;;;;;;;27.67;41.53;99484.50;4450094;32;33917;-72
2023/10/14 10:17:12;;;;;;;22.10;15.35;;;;;;;27.91;40.92;99466.91;4464605;32;33467;-73
2023/10/14 10:20:09;;;;;;;26.15;15.70;;;;;;;27.94;40.44;99465.03;4453710;32;33961;-72
2023/10/14 10:22:50;;;;;;;20.58;13.80;;;;;;;27.81;41.44;99455.66;4460220;32;33154;-72
2023/10/14 10:25:23;;;;;;;20.63;13.43;;;;;;;27.80;41.60;99448.62;4454492;32;33625;-72
2023/10/14 10:27:55;;;;;;;21.20;14.82;;;;;;;27.82;41.63;99446.78;4462828;32;32842;-72
2023/10/14 10:30:24;;;;;;;21.15;14.20;;;;;;;28.35;39.11;99446.81;4453633;32;31941;-73
2023/10/14 10:32:52;;;;;;;21.58;14.40;;;;;;;28.00;40.24;99426.69;4468026;32;34508;-72
2023/10/14 10:35:20;;;;;;;19.23;13.32;;;;;;;28.09;39.00;99428.22;4453667;32;33185;-72
2023/10/14 10:37:54;;;;;;;20.63;12.47;;;;;;;28.16;39.78;99419.97;4455203;32;33045;-73
2023/10/14 10:40:26;;;;;;;21.35;12.40;;;;;;;28.03;41.33;99419.50;4468035;32;34116;-72
2023/10/14 10:43:12;;;;;;;18.15;11.12;;;;;;;27.91;41.17;99419.91;4465273;32;33078;-72
2023/10/14 10:45:42;;;;;;;20.08;13.18;;;;;;;28.73;39.52;99426.00;4465863;32;33631;-72
2023/10/14 10:48:16;;;;;;;15.80;11.63;;;;;;;28.61;38.59;99437.13;4457151;32;33490;-73
2023/10/14 10:50:50;;;;;;;18.58;11.63;;;;;;;28.64;39.24;99442.31;4467301;32;34220;-73
2023/10/14 10:53:19;;;;;;;20.83;12.80;;;;;;;29.14;37.23;99431.66;4460608;32;34098;-72
2023/10/14 10:55:49;;;;;;;16.10;12.63;;;;;;;28.69;38.44;99423.53;4453604;32;33660;-72
2023/10/14 10:58:20;;;;;;;21.35;11.70;;;;;;;29.21;36.99;99425.16;4453351;32;33145;-72
2023/10/14 11:00:50;;;;;;;18.83;12.18;;;;;;;29.10;36.57;99423.81;4467826;32;33552;-72
2023/10/14 11:03:18;;;;;;;20.25;11.70;;;;;;;28.91;37.23;99423.59;4452886;32;33213;-72
2023/10/14 11:05:46;;;;;;;17.95;11.57;;;;;;;29.33;36.90;99425.62;4454881;32;34677;-72
2023/10/14 11:08:15;;;;;;;19.20;11.50;;;;;;;29.08;37.60;99415.84;4435404;32;776981;-73
2023/10/14 11:10:48;;;;;;;18.42;11.85;;;;;;;28.67;38.98;99414.72;4452946;32;33747;-73
2023/10/14 11:13:16;;;;;;;20.70;12.85;;;;;;;28.75;38.14;99405.50;4458426;32;33543;-73
2023/10/14 11:15:47;;;;;;;15.15;10.50;;;;;;;29.25;36.73;99406.37;4461965;32;36276;-72
2023/10/14 11:18:15;;;;;;;17.02;10.93;;;;;;;29.32;37.47;99408.75;4467445;32;33450;-72
2023/10/14 11:21:03;;;;;;;15.35;9.88;;;;;;;29.35;37.00;99415.78;4467170;32;33049;-72
2023/10/14 11:23:34;;;;;;;15.80;10.00;;;;;;;29.62;37.07;99410.28;4453174;32;34563;-72
2023/10/14 11:26:08;;;;;;;17.20;11.82;;;;;;;29.60;36.57;99405.87;4452461;32;32820;-72
2023/10/14 11:28:38;;;;;;;17.37;11.10;;;;;;;29.73;35.24;99402.75;4452719;32;32564;-73
2023/10/14 11:31:09;;;;;;;26.77;11.32;;;;;;;29.67;35.79;99402.94;4465325;32;34415;-73
2023/10/14 11:33:38;;;;;;;20.88;10.18;;;;;;;29.71;35.79;99393.88;4464647;32;33271;-73
2023/10/14 11:36:06;;;;;;;19.00;11.70;;;;;;;29.85;36.58;99396.91;4466934;32;34022;-73
2023/10/14 11:38:42;;;;;;;18.55;11.00;;;;;;;30.32;34.94;99396.72;4446046;32;34413;-73
2023/10/14 11:41:12;;;;;;;16.77;11.60;;;;;;;29.94;35.93;99387.62;4467040;32;33314;-73
2023/10/14 11:43:44;;;;;;;15.70;10.23;;;;;;;30.18;34.82;99377.72;4467188;32;33695;-73
2023/10/14 11:46:12;;;;;;;16.30;10.48;;;;;;;30.28;34.84;99383.56;4467044;32;33477;-72
2023/10/14 11:48:45;;;;;;;28.30;11.63;;;;;;;30.35;34.60;99380.59;4462184;32;33722;-73
2023/10/14 11:51:19;;;;;;;20.00;11.57;;;;;;;30.44;33.53;99381.09;4448469;32;33712;-73
2023/10/14 11:53:52;;;;;;;19.25;10.20;;;;;;;30.22;33.61;99374.00;4437961;32;30965;-73
2023/10/14 11:56:20;;;;;;;15.18;10.10;;;;;;;30.09;34.40;99368.28;4443983;32;33115;-73
2023/10/14 11:58:49;;;;;;;17.08;10.77;;;;;;;29.97;34.15;99374.16;4462178;32;34284;-73
2023/10/14 12:01:23;;;;;;;17.02;10.40;;;;;;;29.79;34.47;99362.47;4460251;32;33617;-73
2023/10/14 12:03:52;;;;;;;15.77;10.33;;;;;;;30.10;35.04;99366.50;4455380;32;33440;-73
2023/10/14 12:06:19;;;;;;;16.37;11.05;;;;;;;30.30;34.37;99369.19;4468607;32;34363;-73